x

San Juan, Pr (41053) Weather Station

11:30pm - Thu 14th Dec 2017 All times are AST. -4 hours from GMT.

  • Wind
    11mph, 13mph gusts
  • Air Temp 80°f
  • Sea Pressure 1017.3mb
  • San Juan, Pr
  • San Juan, Pr

More Historic Weather Station data

Upgrade to MSW Pro to gain access to the past 30 days of data for over 8000 Wavebouys and Weather Stations around the globe.

Join

Comparision Forecast

View Surf forecast
   
Thu 12/14 11:30pm  -   -  11 13 mph 1017.3mb - 80f
11:20pm  -   -  11 13 mph 1017.3mb - 80f
11:10pm 3ft  -  11 11 mph 1017.3mb - 80f
11:00pm 3ft 10s 11 13 mph 1017.4mb 82f 80f
10:30pm  -   -  9 11 mph 1017.6mb - 81f
10:20pm  -   -  9 9 mph 1017.6mb - 81f
10:10pm 2.5ft  -  9 11 mph 1017.6mb - 81f
10:00pm 2.5ft 10s 9 11 mph 1017.6mb 82f 81f
9:30pm  -   -  9 11 mph 1017.5mb - 81f
9:20pm  -   -  9 11 mph 1017.4mb - 81f
9:10pm 3ft  -  9 13 mph 1017.3mb - 81f
9:00pm 3ft 11s 9 13 mph 1017.3mb 82f 81f
8:30pm  -   -  11 13 mph 1016.9mb - 81f
8:20pm  -   -  11 13 mph 1016.8mb - 81f
8:10pm 2.5ft  -  11 13 mph 1016.7mb - 81f
8:00pm 2.5ft 11s 11 11 mph 1016.6mb 82f 81f
7:30pm  -   -  11 13 mph 1016.2mb - 81f
7:20pm  -   -  11 13 mph 1016.1mb - 81f
7:10pm 2.5ft  -  13 16 mph 1016mb - 82f
7:00pm 2.5ft 10s 13 16 mph 1015.9mb 82f 82f
3:30pm  -   -  16 20 mph 1014.4mb - 82f
3:20pm  -   -  16 20 mph 1014.4mb - 82f
3:10pm 3.5ft  -  16 20 mph 1014.4mb - 82f
3:00pm 3.5ft 11s 16 20 mph 1014.4mb 83f 82f
2:30pm  -   -  16 20 mph 1014.6mb - 82f
2:20pm  -   -  16 20 mph 1014.7mb - 82f
2:10pm 3ft  -  16 20 mph 1014.8mb - 82f
2:00pm 3ft 10s 16 20 mph 1014.9mb 83f 82f
1:30pm  -   -  16 18 mph 1015.2mb - 82f
1:20pm  -   -  16 18 mph 1015.3mb - 82f
1:10pm 3.5ft  -  16 18 mph 1015.5mb - 82f
1:00pm 3.5ft 11s 16 18 mph 1015.6mb 82f 82f
12:30pm  -   -  16 18 mph 1015.9mb - 82f
12:20pm  -   -  13 18 mph 1016.1mb - 82f
12:10pm 3ft  -  13 16 mph 1016.2mb - 82f
12:00pm 3ft 9s 11 13 mph 1016.4mb 83f 82f
11:30am  -   -  7 11 mph 1016.7mb - 82f
11:20am  -   -  9 9 mph 1016.8mb - 82f
11:10am 3.5ft  -  9 11 mph 1016.8mb - 82f
11:00am 3.5ft 11s 9 11 mph 1017mb 83f 82f
10:30am  -   -  7 9 mph 1017.2mb - 82f
10:20am  -   -  7 7 mph 1017.3mb - 82f
10:10am 3ft  -  7 9 mph 1017.3mb - 82f
10:00am 3ft 10s 7 9 mph 1017.3mb 82f 82f
9:30am  -   -  4 7 mph 1017.2mb - 82f
9:20am  -   -  4 7 mph 1017.1mb - 82f
9:10am 3ft  -  4 7 mph 1017.1mb - 82f
9:00am 3ft 11s 2 4 mph 1017mb 82f 82f
8:30am  -   -  4 7 mph 1016.6mb - 81f
8:20am  -   -  4 7 mph 1016.4mb - 80f
8:10am 3ft  -  4 4 mph 1016.3mb - 80f
8:00am 3ft 10s 4 7 mph 1016.2mb 82f 79f
7:30am  -   -  4 7 mph 1015.8mb - 78f
7:20am  -   -  4 7 mph 1015.7mb - 78f
7:10am 3ft  -  4 7 mph 1015.5mb - 78f
7:00am 3ft 11s 4 9 mph 1015.4mb 82f 78f
6:30am  -   -  4 7 mph 1015mb - 77f
6:20am  -   -  4 7 mph 1014.9mb - 78f
6:10am 3ft  -  4 7 mph 1014.9mb - 78f
6:00am 3ft 11s 7 9 mph 1014.9mb 82f 77f
5:30am  -   -  7 9 mph 1014.6mb - 78f
5:20am  -   -  4 7 mph 1014.6mb - 78f
5:10am 3ft  -  7 7 mph 1014.5mb - 78f
5:00am 3ft 11s 7 7 mph 1014.5mb 82f 78f
4:30am  -   -  7 7 mph 1014.1mb - 78f
4:20am  -   -  7 7 mph 1014.1mb - 78f
4:10am 2.5ft  -  7 9 mph 1014.1mb - 78f
4:00am 2.5ft 9s 7 9 mph 1014.1mb 82f 78f
3:30am  -   -  9 9 mph 1014mb - 78f
3:20am  -   -  9 11 mph 1014mb - 78f
3:10am 3ft  -  7 9 mph 1014.1mb - 78f
3:00am 3ft 9s 7 9 mph 1014.2mb 82f 79f
2:50am  -   -  7 9 mph 1014.3mb - 79f
2:40am  -   -  7 11 mph 1014.3mb - 79f
2:30am  -   -  7 9 mph 1014.4mb - 79f
2:20am  -   -  7 7 mph 1014.5mb - 79f
2:10am 2.5ft  -  7 7 mph 1014.6mb - 79f
2:00am 2.5ft 10s 4 7 mph 1014.7mb 82f 79f
1:30am  -   -  4 7 mph 1015mb - 79f
1:20am  -   -  4 7 mph 1015.1mb - 79f
1:10am 2.5ft  -  7 9 mph 1015.2mb - 79f
1:00am 2.5ft 9s 7 9 mph 1015.2mb 82f 79f
12:30am  -   -  7 9 mph 1015.4mb - 79f
12:20am  -   -  7 7 mph 1015.5mb - 79f
12:10am 3ft  -  4 7 mph 1015.6mb - 79f
12:00am 3ft 8s 4 7 mph 1015.6mb 82f 79f
Wed 12/13 11:50pm  -   -  4 7 mph 1015.6mb - 79f
11:30pm  -   -  7 7 mph 1015.8mb - 80f
11:20pm  -   -  7 9 mph 1015.9mb - 80f
11:10pm 3ft  -  7 9 mph 1015.9mb - 80f
11:00pm 3ft 10s 9 11 mph 1015.9mb 82f 80f
10:50pm  -   -  9 11 mph 1016mb - 80f
10:30pm  -   -  7 11 mph 1016.1mb - 81f
10:20pm  -   -  7 9 mph 1016.2mb - 81f
10:10pm 3ft  -  7 11 mph 1016.1mb - 81f
10:00pm 3ft 8s 7 9 mph 1016.1mb 82f 81f
9:50pm  -   -  7 9 mph 1016.1mb - 81f
9:30pm  -   -  9 11 mph 1016.1mb - 81f
9:20pm  -   -  9 11 mph 1015.9mb - 81f
9:10pm 3ft  -  7 11 mph 1015.8mb - 81f
9:00pm 3ft 9s 7 11 mph 1015.8mb 82f 81f
8:50pm  -   -  7 11 mph 1015.6mb - 81f
8:30pm  -   -  7 9 mph 1015.4mb - 82f
8:20pm  -   -  9 11 mph 1015.4mb - 82f
8:10pm 3.5ft  -  7 11 mph 1015.3mb - 82f
8:00pm 3.5ft 9s 7 11 mph 1015.2mb 82f 82f
7:50pm  -   -  9 11 mph 1015mb - 82f
7:30pm  -   -  7 11 mph 1014.8mb - 82f
7:20pm  -   -  9 11 mph 1014.7mb - 82f
7:10pm 3.5ft  -  9 11 mph 1014.6mb - 82f
7:00pm 3.5ft 8s 9 11 mph 1014.5mb 82f 82f
6:50pm  -   -  9 11 mph 1014.4mb - 82f
6:30pm  -   -  11 16 mph 1014.1mb - 82f
6:20pm  -   -  9 13 mph 1014mb - 83f
6:10pm 3ft  -  9 13 mph 1014mb - 84f
6:00pm 3ft 8s 9 13 mph 1013.9mb 82f 84f
5:50pm  -   -  7 9 mph 1013.8mb - 84f
5:30pm  -   -  7 9 mph 1013.7mb - 84f
5:20pm  -   -  7 11 mph 1013.5mb - 84f
5:10pm 3ft  -  7 11 mph 1013.5mb - 84f
5:00pm 3ft 9s 9 11 mph 1013.5mb 82f 84f
4:50pm  -   -  7 9 mph 1013.4mb - 84f
4:30pm  -   -  7 9 mph 1013.2mb - 83f
4:20pm  -   -  9 11 mph 1013.1mb - 82f
4:10pm 3.5ft  -  9 13 mph 1013mb - 82f
4:00pm 3.5ft 9s 11 13 mph 1012.9mb 82f 82f
3:50pm  -   -  11 13 mph 1012.9mb - 82f
3:30pm  -   -  11 11 mph 1012.8mb - 83f
3:20pm  -   -  11 11 mph 1012.8mb - 83f
3:10pm 3.5ft  -  11 11 mph 1012.8mb - 83f
3:00pm 3.5ft 8s 9 11 mph 1012.9mb 82f 83f
2:50pm  -   -  9 11 mph 1012.9mb - 82f
2:30pm  -   -  11 11 mph 1013.1mb - 82f
2:20pm  -   -  11 13 mph 1013.2mb - 82f
2:10pm 3.5ft  -  11 13 mph 1013.3mb - 82f
2:00pm 3.5ft 8s 11 13 mph 1013.5mb 82f 82f
1:50pm  -   -  11 11 mph 1013.7mb - 82f
1:30pm  -   -  11 11 mph 1013.9mb - 82f
1:20pm  -   -  11 11 mph 1014mb - 82f
1:10pm 3.5ft  -  9 11 mph 1014.1mb - 82f
1:00pm 3.5ft 9s 9 11 mph 1014.2mb 83f 82f
12:50pm  -   -  9 11 mph 1014.4mb - 82f
12:30pm  -   -  7 9 mph 1014.7mb - 82f
12:20pm  -   -  7 9 mph 1014.9mb - 82f
12:10pm 3.5ft  -  7 9 mph 1015mb - 82f
12:00pm 3.5ft 8s 7 9 mph 1015.3mb 83f 82f
11:50am  -   -  7 7 mph 1015.5mb - 82f
11:30am  -   -  4 7 mph 1015.7mb - 82f
11:20am  -   -  4 7 mph 1015.9mb - 82f
11:10am 3.5ft  -  4 7 mph 1015.9mb - 82f
11:00am 3.5ft 9s 4 4 mph 1016mb 82f 83f
10:50am  -   -  2 4 mph 1016.1mb - 84f
10:30am  -   -  2 4 mph 1016.2mb - 83f
10:20am  -   -  2 4 mph 1016.2mb - 83f
10:10am 3.5ft  -  4 4 mph 1016.2mb - 83f
10:00am 3.5ft 9s 4 7 mph 1016.1mb 82f 83f
9:50am  -   -  4 4 mph 1016.2mb - 83f
9:30am  -   -  2 4 mph 1016.1mb - 82f
9:20am  -   -  4 7 mph 1016.1mb - 82f
9:10am 4ft  -  4 7 mph 1015.9mb - 81f
9:00am 4ft 8s 4 7 mph 1015.8mb 82f 81f
8:50am  -   -  7 9 mph 1015.7mb - 81f
8:30am  -   -  4 7 mph 1015.4mb - 81f
8:20am  -   -  4 7 mph 1015.3mb - 81f
8:10am 4ft  -  4 7 mph 1015.2mb - 80f
8:00am 4ft 9s 4 7 mph 1015.1mb 82f 80f
7:50am  -   -  4 7 mph 1014.9mb - 79f
7:30am  -   -  4 7 mph 1014.6mb - 79f
7:20am  -   -  4 9 mph 1014.4mb - 78f
7:10am 4ft  -  4 7 mph 1014.3mb - 78f
7:00am 4ft 10s 4 7 mph 1014.1mb 82f 77f
6:50am  -   -  4 7 mph 1014.1mb - 77f
6:30am  -   -  4 7 mph 1013.8mb - 77f
6:20am  -   -  2 4 mph 1013.6mb - 77f
6:10am 3.5ft  -  4 7 mph 1013.5mb - 77f
6:00am 3.5ft 9s 4 4 mph 1013.3mb 82f 77f
5:50am  -   -  4 4 mph 1013.1mb - 77f
5:30am  -   -  2 4 mph 1012.8mb - 77f
5:20am  -   -  4 7 mph 1012.6mb - 77f
5:10am 3.5ft  -  4 7 mph 1012.6mb - 77f
5:00am 3.5ft 9s 4 7 mph 1012.5mb 82f 78f
4:50am  -   -  4 7 mph 1012.5mb - 78f
4:30am  -   -  4 4 mph 1012.3mb - 78f
4:20am  -   -  4 4 mph 1012.3mb - 77f
4:10am 4ft  -  4 7 mph 1012.2mb - 78f
4:00am 4ft 9s 4 7 mph 1012.2mb 82f 78f
3:50am  -   -  4 7 mph 1012.1mb - 78f
3:30am  -   -  4 7 mph 1012.1mb - 78f
3:20am  -   -  4 7 mph 1012mb - 78f
3:10am 3.5ft  -  4 7 mph 1012mb - 78f
3:00am 3.5ft 8s 4 7 mph 1012mb 82f 78f
2:50am  -   -  4 7 mph 1012.1mb - 78f
2:30am  -   -  4 7 mph 1012.3mb - 78f
2:20am  -   -  4 7 mph 1012.4mb - 78f
2:10am 3.5ft  -  4 7 mph 1012.5mb - 78f
2:00am 3.5ft 10s 4 7 mph 1012.5mb 82f 78f
1:50am  -   -  2 4 mph 1012.6mb - 78f
1:30am  -   -  2 4 mph 1012.6mb - 78f
1:20am  -   -  4 4 mph 1012.8mb - 78f
1:10am 4ft  -  4 7 mph 1012.8mb - 78f
1:00am 4ft 9s 4 7 mph 1012.8mb 82f 78f
12:50am  -   -  4 7 mph 1012.8mb - 79f
12:30am  -   -  2 4 mph 1013mb - 79f
12:20am  -   -  4 4 mph 1013mb - 79f
12:10am 4.5ft  -  4 7 mph 1013.1mb - 79f
12:00am 4.5ft 9s 4 7 mph 1013.2mb 82f 79f
Tue 12/12 11:50pm  -   -  4 7 mph 1013.3mb - 79f
11:30pm  -   -  7 9 mph 1013.4mb - 79f
11:20pm  -   -  4 7 mph 1013.4mb - 79f
11:10pm 3.5ft  -  4 7 mph 1013.5mb - 80f
11:00pm 3.5ft 9s 4 7 mph 1013.5mb 82f 80f
10:50pm  -   -  4 4 mph 1013.6mb - 80f
10:30pm  -   -  4 7 mph 1013.7mb - 80f
10:20pm  -   -  4 7 mph 1013.7mb - 80f
10:10pm 3.5ft  -  4 4 mph 1013.8mb - 80f
10:00pm 3.5ft 10s 4 7 mph 1013.7mb 82f 80f
9:50pm  -   -  4 7 mph 1013.7mb - 80f
9:30pm  -   -  4 7 mph 1013.7mb - 80f
9:20pm  -   -  4 7 mph 1013.7mb - 80f
9:10pm 4ft  -  4 7 mph 1013.5mb - 81f
9:00pm 4ft 9s 4 9 mph 1013.5mb 82f 81f
8:50pm  -   -  4 9 mph 1013.4mb - 81f
8:30pm  -   -  4 7 mph 1013.3mb - 81f
8:20pm  -   -  7 9 mph 1013.1mb - 81f
8:10pm 3.5ft  -  7 9 mph 1012.9mb - 81f
8:00pm 3.5ft 10s 7 11 mph 1012.8mb 82f 81f
7:50pm  -   -  7 9 mph 1012.8mb - 81f
7:30pm  -   -  11 13 mph 1012.4mb - 81f
7:20pm  -   -  11 13 mph 1012.3mb - 81f
7:10pm 4ft  -  11 16 mph 1012.2mb - 82f
7:00pm 4ft 10s 11 16 mph 1012mb 82f 82f
6:50pm  -   -  9 16 mph 1011.9mb - 82f
6:30pm  -   -  9 13 mph 1011.7mb - 82f
6:20pm  -   -  11 16 mph 1011.6mb - 83f
6:10pm 4ft  -  9 16 mph 1011.5mb - 83f
6:00pm 4ft 10s 9 13 mph 1011.4mb 82f 83f
5:50pm  -   -  9 13 mph 1011.2mb - 84f
5:30pm  -   -  9 16 mph 1010.8mb - 84f
5:20pm  -   -  9 13 mph 1010.7mb - 84f
5:10pm 3.5ft  -  9 16 mph 1010.5mb - 84f
5:00pm 3.5ft 9s 11 13 mph 1010.4mb 82f 84f
4:50pm  -   -  11 16 mph 1010.3mb - 85f
4:30pm  -   -  11 16 mph 1010.3mb - 84f
4:20pm  -   -  9 13 mph 1010.2mb - 85f
4:10pm 4ft  -  9 16 mph 1010.2mb - 85f
4:00pm 4ft 9s 11 13 mph 1010.1mb 82f 85f
3:50pm  -   -  9 11 mph 1010mb - 85f
3:30pm  -   -  13 16 mph 1010.1mb - 82f
3:20pm  -   -  16 18 mph 1010.1mb - 82f
3:10pm 4ft  -  16 18 mph 1010.1mb - 82f
3:00pm 4ft 9s 13 16 mph 1010.1mb 82f 82f
2:50pm  -   -  13 16 mph 1010.2mb - 82f
2:30pm  -   -  13 16 mph 1010.4mb - 82f
2:20pm  -   -  13 16 mph 1010.5mb - 82f
2:10pm 4ft  -  13 16 mph 1010.5mb - 82f
2:00pm 4ft 9s 13 16 mph 1010.7mb 82f 82f
1:50pm  -   -  13 13 mph 1010.8mb - 82f
1:30pm  -   -  11 13 mph 1011.1mb - 82f
1:20pm  -   -  11 13 mph 1011.3mb - 81f
1:10pm 3.5ft  -  9 11 mph 1011.5mb - 81f
1:00pm 3.5ft 9s 9 11 mph 1011.7mb 82f 81f
12:50pm  -   -  9 11 mph 1011.9mb - 81f
12:30pm  -   -  9 11 mph 1012.3mb - 81f
12:20pm  -   -  9 11 mph 1012.6mb - 81f
12:10pm 3.5ft  -  9 11 mph 1012.8mb - 81f
12:00pm 3.5ft 8s 9 9 mph 1012.9mb 82f 80f
11:50am  -   -  7 9 mph 1013.1mb - 80f
11:30am  -   -  7 9 mph 1013.5mb - 80f
11:20am  -   -  7 9 mph 1013.5mb - 80f
11:10am 3.5ft  -  7 9 mph 1013.5mb - 80f
11:00am 3.5ft 9s 4 7 mph 1013.6mb 82f 80f
10:50am  -   -  4 7 mph 1013.7mb - 80f
10:30am  -   -  7 7 mph 1013.8mb - 80f
10:20am  -   -  4 7 mph 1013.8mb - 80f
10:10am 3.5ft  -  4 7 mph 1013.9mb - 80f
10:00am 3.5ft 9s 4 7 mph 1014mb 82f 80f
9:50am  -   -  4 7 mph 1014mb - 81f
9:30am  -   -   -  2 mph 1014mb - 82f
9:20am  -   -  2 2 mph 1014.1mb - 80f
9:10am 3.5ft  -  2 4 mph 1014mb - 79f
9:00am 3.5ft 8s 4 4 mph 1014mb 82f 79f
8:50am  -   -  4 7 mph 1013.9mb - 78f
8:30am  -   -  7 7 mph 1013.7mb - 78f
8:20am  -   -  7 7 mph 1013.6mb - 77f
8:10am 3ft  -  7 9 mph 1013.5mb - 77f
8:00am 3ft 8s 7 9 mph 1013.4mb 82f 77f
7:50am  -   -  2 7 mph 1013.2mb - 78f
7:30am  -   -  2 4 mph 1013.1mb - 78f
7:20am  -   -  2 4 mph 1012.8mb - 77f
7:10am 3ft  -  4 4 mph 1012.7mb - 76f
7:00am 3ft 9s 4 7 mph 1012.5mb 82f 76f
6:50am  -   -  4 7 mph 1012.4mb - 76f
6:30am  -   -  4 7 mph 1012.2mb - 76f
6:20am  -   -  4 7 mph 1012mb - 76f
6:10am 3ft  -  7 7 mph 1011.9mb - 76f
6:00am 3ft 8s 4 7 mph 1011.9mb 82f 76f
5:50am  -   -  2 4 mph 1011.7mb - 76f
5:30am  -   -  4 7 mph 1011.5mb - 76f
5:20am  -   -  7 7 mph 1011.4mb - 76f
5:10am 3ft  -  7 9 mph 1011.4mb - 76f
5:00am 3ft 8s 7 7 mph 1011.3mb 82f 76f
4:50am  -   -  7 9 mph 1011.3mb - 76f
4:30am  -   -  7 9 mph 1011.3mb - 76f
4:20am  -   -  7 9 mph 1011.2mb - 76f
4:10am 3.5ft  -  7 9 mph 1011.3mb - 76f
4:00am 3.5ft 7s 4 7 mph 1011.3mb 82f 76f
3:50am  -   -  7 7 mph 1011.3mb - 76f
3:30am  -   -  7 7 mph 1011.5mb - 76f
3:20am  -   -  7 7 mph 1011.6mb - 76f
3:10am 3.5ft  -  7 9 mph 1011.6mb - 76f
3:00am 3.5ft 8s 7 9 mph 1011.6mb 82f 76f
2:50am  -   -  7 9 mph 1011.7mb - 76f
2:30am  -   -  7 9 mph 1011.9mb - 76f
2:20am  -   -  7 9 mph 1011.9mb - 76f
2:10am 3.5ft  -  7 9 mph 1012mb - 76f
2:00am 3.5ft 8s 7 9 mph 1012.1mb 82f 76f
1:50am  -   -  7 7 mph 1012.2mb - 77f
1:30am  -   -  7 9 mph 1012.4mb - 77f
1:20am  -   -  7 9 mph 1012.5mb - 77f
1:10am 3ft  -  7 7 mph 1012.6mb - 77f
1:00am 3ft 13s 4 7 mph 1012.8mb 82f 77f
12:50am  -   -  4 7 mph 1012.8mb - 78f
12:30am  -   -  4 7 mph 1012.8mb - 78f
12:20am  -   -  4 7 mph 1012.9mb - 78f
12:10am 3.5ft  -  7 7 mph 1012.9mb - 78f
12:00am 3.5ft 13s 4 7 mph 1012.9mb 82f 78f
Mon 12/11 11:50pm  -   -  4 7 mph 1012.9mb - 78f
11:30pm  -   -  4 7 mph 1012.9mb - 79f
11:20pm  -   -  7 9 mph 1012.9mb - 79f
11:10pm 3.5ft  -  4 7 mph 1013mb - 80f
11:00pm 3.5ft 8s 7 7 mph 1013mb 82f 80f
10:50pm  -   -  4 7 mph 1013.1mb - 80f
10:30pm  -   -  7 9 mph 1013.1mb - 80f
10:20pm  -   -  7 9 mph 1013.2mb - 81f
10:10pm 3.5ft  -  7 9 mph 1013.2mb - 80f
10:00pm 3.5ft 8s 7 11 mph 1013.3mb 82f 80f
9:50pm  -   -  9 11 mph 1013.3mb - 80f
9:30pm  -   -  7 9 mph 1013.4mb - 80f
9:20pm  -   -  7 11 mph 1013.4mb - 80f
9:10pm 3.5ft  -  9 11 mph 1013.2mb - 81f
9:00pm 3.5ft 11s 7 11 mph 1013.2mb 82f 80f
8:50pm  -   -  7 11 mph 1013.2mb - 80f
8:30pm  -   -  7 11 mph 1013.1mb - 81f
8:20pm  -   -  7 9 mph 1012.9mb - 81f
8:10pm 3.5ft  -  9 11 mph 1012.8mb - 81f
8:00pm 3.5ft 9s 9 11 mph 1012.8mb 82f 81f
7:50pm  -   -  7 9 mph 1012.6mb - 81f
7:30pm  -   -  9 11 mph 1012.4mb - 81f
7:20pm  -   -  9 11 mph 1012.2mb - 81f
7:10pm 3.5ft  -  9 9 mph 1012.2mb - 81f
7:00pm 3.5ft 7s 9 11 mph 1012mb 82f 81f
6:30pm  -   -  7 11 mph 1011.9mb - 81f
6:20pm  -   -  9 11 mph 1011.7mb - 81f
6:10pm 3.5ft  -  9 11 mph 1011.6mb - 81f
6:00pm 3.5ft 13s 7 11 mph 1011.5mb 82f 81f
5:50pm  -   -  7 11 mph 1011.3mb - 80f
5:30pm  -   -  7 9 mph 1011.3mb - 81f
5:20pm  -   -  7 11 mph 1011.3mb - 81f
5:10pm 4ft  -  7 9 mph 1011.3mb - 81f
5:00pm 4ft 8s 7 11 mph 1011.3mb 82f 81f
4:50pm  -   -  7 9 mph 1011.3mb - 81f
4:30pm  -   -  7 9 mph 1011.1mb - 81f
4:20pm  -   -  7 9 mph 1011.1mb - 81f
4:10pm 4ft  -  7 11 mph 1011mb - 81f
4:00pm 4ft 9s 9 11 mph 1011mb 82f 81f
3:50pm  -   -  7 9 mph 1011.1mb - 81f
3:30pm  -   -  7 9 mph 1011.1mb - 81f
3:20pm  -   -  7 9 mph 1011.1mb - 81f
3:10pm 4ft  -  7 9 mph 1011.2mb - 81f
3:00pm 4ft 8s 7 9 mph 1011.3mb 82f 81f
2:50pm  -   -  7 9 mph 1011.3mb - 81f
2:30pm  -   -  7 9 mph 1011.6mb - 81f
2:20pm  -   -  9 11 mph 1011.7mb - 81f
2:10pm 4ft  -  9 11 mph 1011.9mb - 81f
2:00pm 4ft 8s 9 11 mph 1011.9mb 82f 81f
1:50pm  -   -  9 11 mph 1012mb - 81f
1:30pm  -   -  9 11 mph 1012.3mb - 81f
1:20pm  -   -  9 11 mph 1012.4mb - 81f
1:10pm 4.5ft  -  9 11 mph 1012.6mb - 81f
1:00pm 4.5ft 11s 7 9 mph 1012.7mb 82f 81f
12:50pm  -   -  9 11 mph 1012.8mb - 81f
12:40pm  -   -  9 11 mph 1012.9mb - 81f
12:30pm  -   -  9 11 mph 1013mb - 81f
12:20pm  -   -  9 13 mph 1013.2mb - 81f
12:10pm 4.5ft  -  9 11 mph 1013.4mb - 81f
12:00pm 4.5ft 9s 11 13 mph 1013.5mb 82f 81f
11:50am  -   -  11 13 mph 1013.6mb - 81f
11:30am  -   -  11 13 mph 1013.8mb - 81f
11:20am  -   -  9 13 mph 1014mb - 81f
11:10am 4.5ft  -  11 13 mph 1014.1mb - 81f
11:00am 4.5ft 8s 11 13 mph 1014.3mb 82f 81f
10:50am  -   -  11 13 mph 1014.4mb - 81f
10:30am  -   -  11 13 mph 1014.5mb - 81f
10:20am  -   -  13 16 mph 1014.4mb - 81f
10:10am 4ft  -  13 16 mph 1014.5mb - 81f
10:00am 4ft 8s 13 16 mph 1014.6mb 82f 81f
9:50am  -   -  11 16 mph 1014.5mb - 81f
9:30am  -   -  13 16 mph 1014.4mb - 81f
9:20am  -   -  13 16 mph 1014.3mb - 81f
9:10am 4.5ft  -  13 16 mph 1014.2mb - 81f
9:00am 4.5ft 8s 13 18 mph 1014.1mb 82f 81f
8:50am  -   -  13 18 mph 1014.1mb - 81f
8:30am  -   -  13 18 mph 1014mb - 81f
8:20am  -   -  13 18 mph 1014mb - 80f
8:10am 4.5ft  -  13 16 mph 1014mb - 81f
8:00am 4.5ft 9s 11 16 mph 1013.7mb 82f 81f
7:50am  -   -  13 16 mph 1013.7mb - 81f
7:30am  -   -  13 16 mph 1013.5mb - 81f
7:20am  -   -  13 16 mph 1013.4mb - 81f
7:10am 4.5ft  -  11 16 mph 1013.3mb - 81f
7:00am 4.5ft 11s 13 16 mph 1013.1mb 82f 81f
6:50am  -   -  13 16 mph 1013mb - 80f
6:30am  -   -  13 16 mph 1012.7mb - 80f
6:20am  -   -  13 16 mph 1012.6mb - 80f
6:10am 5ft  -  13 16 mph 1012.6mb - 80f
6:00am 5ft 8s 13 16 mph 1012.6mb 82f 80f
5:50am  -   -  13 18 mph 1012.5mb - 80f
5:30am  -   -  13 18 mph 1012.4mb - 80f
5:20am  -   -  13 18 mph 1012.4mb - 80f
5:10am 5ft  -  16 18 mph 1012.3mb - 80f
5:00am 5ft 8s 16 18 mph 1012.3mb 82f 80f
4:50am  -   -  13 18 mph 1012.4mb - 80f